Time;durP1;ratioP1;P1;durP2;ratioP2;P2;SDS_P1;SDS_P2;PMS_P1;PMS_P2;Temp;Humidity;BMP_temperature;BMP_pressure;BME280_temperature;BME280_humidity;BME280_pressure;Samples;Min_cycle;Max_cycle;Signal;HPM_P1;HPM_P2
2023/01/31 00:00:22;;;;;;;418.10;189.93;;;;;;;3.06;100.00;98591.72;5033145;28;20141;-61
2023/01/31 00:02:48;;;;;;;396.80;127.53;;;;;;;2.93;100.00;98567.94;5030156;28;20563;-61
2023/01/31 00:05:14;;;;;;;408.63;136.43;;;;;;;2.95;100.00;98591.63;5026354;28;20049;-60
2023/01/31 00:07:39;;;;;;;408.70;135.50;;;;;;;3.06;100.00;98584.13;5030591;28;20045;-62
2023/01/31 00:10:05;;;;;;;407.67;134.13;;;;;;;3.13;100.00;98601.09;5031687;28;20279;-62
2023/01/31 00:12:33;;;;;;;419.37;190.23;;;;;;;3.22;100.00;98607.06;5030799;28;20049;-61
2023/01/31 00:14:59;;;;;;;396.80;131.50;;;;;;;3.22;100.00;98586.81;5028614;28;20670;-62
2023/01/31 00:17:25;;;;;;;399.30;129.93;;;;;;;3.26;100.00;98574.19;5026481;28;20622;-62
2023/01/31 00:19:51;;;;;;;397.17;127.37;;;;;;;3.29;100.00;98577.59;5027967;28;20708;-61
2023/01/31 00:22:17;;;;;;;403.83;130.47;;;;;;;3.35;100.00;98590.31;5028791;28;20037;-62
2023/01/31 00:24:42;;;;;;;406.00;135.60;;;;;;;3.35;100.00;98594.53;5027533;28;20029;-61
2023/01/31 00:27:08;;;;;;;402.27;135.57;;;;;;;3.41;100.00;98597.97;5026773;28;20332;-62
2023/01/31 00:29:33;;;;;;;403.83;134.73;;;;;;;3.37;100.00;98568.38;5027972;28;20344;-62
2023/01/31 00:31:59;;;;;;;396.93;126.37;;;;;;;3.30;100.00;98599.56;5030921;28;20048;-61
2023/01/31 00:34:25;;;;;;;402.73;146.30;;;;;;;3.36;100.00;98588.63;5030670;28;20103;-60
2023/01/31 00:36:50;;;;;;;395.63;129.27;;;;;;;3.36;100.00;98603.81;5033046;28;20496;-65
2023/01/31 00:39:16;;;;;;;413.97;199.60;;;;;;;3.41;100.00;98595.44;5029395;28;20029;-61
2023/01/31 00:41:43;;;;;;;408.48;152.75;;;;;;;3.38;100.00;98592.03;5028911;28;20543;-60
2023/01/31 00:44:11;;;;;;;399.55;145.75;;;;;;;3.39;100.00;98596.25;5028901;28;20558;-61
2023/01/31 00:46:37;;;;;;;395.17;132.43;;;;;;;3.39;100.00;98625.00;5029518;28;20619;-61
2023/01/31 00:49:03;;;;;;;396.53;130.57;;;;;;;3.38;100.00;98609.75;5044279;28;20052;-60
2023/01/31 00:51:29;;;;;;;397.00;142.70;;;;;;;3.28;100.00;98601.22;5036850;28;20041;-67
2023/01/31 00:53:54;;;;;;;407.67;178.87;;;;;;;3.11;100.00;98568.13;5029681;28;20045;-61
2023/01/31 00:56:22;;;;;;;430.77;238.27;;;;;;;3.13;100.00;98571.53;5035915;28;20044;-61
2023/01/31 00:58:49;;;;;;;414.05;192.48;;;;;;;3.16;100.00;98611.25;5027912;28;20056;-60
2023/01/31 01:01:22;;;;;;;408.23;170.77;;;;;;;3.10;100.00;98593.44;5029105;28;20486;-65
2023/01/31 01:03:49;;;;;;;393.08;123.60;;;;;;;3.14;100.00;98587.59;5038321;28;20353;-60
2023/01/31 01:06:15;;;;;;;403.37;130.83;;;;;;;3.13;100.00;98628.94;5028726;28;20046;-61
2023/01/31 01:08:42;;;;;;;400.93;127.50;;;;;;;2.92;100.00;98639.69;5029041;28;20052;-60
2023/01/31 01:11:11;;;;;;;403.03;131.10;;;;;;;2.78;100.00;98630.22;5030568;28;20037;-62
2023/01/31 01:13:38;;;;;;;420.30;209.63;;;;;;;2.62;100.00;98619.94;5027802;28;20280;-61
2023/01/31 01:16:06;;;;;;;412.33;173.25;;;;;;;2.66;100.00;98628.41;5031077;28;20366;-61
2023/01/31 01:18:34;;;;;;;404.70;139.60;;;;;;;2.66;100.00;98616.63;5028102;28;20122;-61
2023/01/31 01:21:06;;;;;;;405.43;134.87;;;;;;;2.56;100.00;98612.25;5028057;28;20040;-61
2023/01/31 01:23:31;;;;;;;406.10;132.27;;;;;;;2.79;100.00;98619.28;5035969;28;20295;-62
2023/01/31 01:26:00;;;;;;;405.30;129.97;;;;;;;2.96;100.00;98621.19;5045679;28;20272;-61
2023/01/31 01:28:32;;;;;;;407.03;130.93;;;;;;;3.00;100.00;98605.19;5027073;28;20050;-60
2023/01/31 01:30:58;;;;;;;407.40;133.53;;;;;;;3.14;100.00;98605.31;5028477;28;20398;-61
2023/01/31 01:33:24;;;;;;;405.73;129.73;;;;;;;3.16;100.00;98611.25;5029600;28;20817;-60
2023/01/31 01:35:49;;;;;;;411.13;135.30;;;;;;;3.05;100.00;98574.84;5029189;28;20806;-61
2023/01/31 01:38:15;;;;;;;412.57;135.97;;;;;;;3.21;100.00;98602.00;5026771;28;20648;-60
2023/01/31 01:40:41;;;;;;;414.90;137.53;;;;;;;3.22;100.00;98606.25;5028577;28;20049;-60
2023/01/31 01:43:10;;;;;;;414.70;137.17;;;;;;;3.13;100.00;98573.22;5028596;28;20775;-60
2023/01/31 01:45:36;;;;;;;414.60;138.73;;;;;;;3.21;100.00;98595.25;5027746;28;20075;-61
2023/01/31 01:48:07;;;;;;;414.57;137.77;;;;;;;3.23;100.00;98610.44;5028873;28;20620;-61
2023/01/31 01:50:38;;;;;;;413.70;138.10;;;;;;;3.32;100.00;98623.22;5022480;28;20292;-60
2023/01/31 01:53:04;;;;;;;411.43;153.87;;;;;;;3.36;100.00;98614.81;5026805;28;20287;-61
2023/01/31 01:55:41;;;;;;;417.27;164.03;;;;;;;3.35;100.00;98604.69;5027386;28;20280;-61
2023/01/31 01:58:32;;;;;;;413.57;159.23;;;;;;;3.29;100.00;98628.25;5026825;28;20065;-61
2023/01/31 02:00:58;;;;;;;413.37;151.90;;;;;;;3.40;100.00;98603.00;5002285;28;20286;-62
2023/01/31 02:03:25;;;;;;;411.70;140.33;;;;;;;3.39;100.00;98603.88;5026944;28;20814;-62
2023/01/31 02:05:55;;;;;;;409.87;136.87;;;;;;;3.29;100.00;98609.69;5031369;28;20279;-64
2023/01/31 02:08:24;;;;;;;408.97;132.83;;;;;;;3.36;100.00;98624.94;5031242;28;20295;-61
2023/01/31 02:10:54;;;;;;;410.63;138.17;;;;;;;3.31;100.00;98623.22;5030723;28;20271;-60
2023/01/31 02:13:22;;;;;;;417.07;145.83;;;;;;;3.46;100.00;98621.66;5031571;28;20265;-60
2023/01/31 02:15:47;;;;;;;411.80;143.63;;;;;;;3.39;100.00;98593.72;5032947;28;20288;-60
2023/01/31 02:18:15;;;;;;;412.77;141.73;;;;;;;3.48;100.00;98632.66;5033699;28;20707;-62
2023/01/31 02:21:19;;;;;;;413.50;139.97;;;;;;;3.55;100.00;98647.09;5040489;28;20356;-61
2023/01/31 02:24:25;;;;;;;413.20;139.20;;;;;;;3.60;100.00;98622.66;5040887;28;20334;-61
2023/01/31 02:27:05;;;;;;;409.23;144.75;;;;;;;3.52;100.00;98634.38;5002771;28;20994;-61
2023/01/31 02:29:55;;;;;;;437.52;236.45;;;;;;;3.58;100.00;98641.19;4981472;28;20576;-61
2023/01/31 02:32:40;;;;;;;448.33;263.00;;;;;;;3.56;100.00;98637.81;4999427;28;20045;-62
2023/01/31 02:35:17;;;;;;;441.10;255.57;;;;;;;3.50;100.00;98598.03;4980497;28;20050;-61
2023/01/31 02:38:01;;;;;;;418.65;196.82;;;;;;;3.54;100.00;98640.31;4995824;28;20125;-64
2023/01/31 02:41:05;;;;;;;436.13;270.08;;;;;;;3.58;100.00;98641.19;4974082;28;20084;-61
2023/01/31 02:44:58;;;;;;;403.50;141.57;;;;;;;3.51;100.00;98614.09;4977647;28;20128;-61
2023/01/31 02:46:35;;;;;;;398.58;130.02;;;;;;;3.39;100.00;98626.66;4979092;28;20055;-61
2023/01/31 02:49:08;;;;;;;410.23;147.05;;;;;;;3.52;100.00;98634.38;4997018;28;20046;-61
2023/01/31 02:51:42;;;;;;;409.15;143.15;;;;;;;3.60;100.00;98660.66;4983661;28;20505;-61
2023/01/31 02:54:16;;;;;;;35.27;21.10;;;;;;;3.50;100.00;98635.22;4998634;28;20038;-61
2023/01/31 02:56:45;;;;;;;15.35;14.20;;;;;;;3.48;100.00;98637.72;4982571;28;20296;-61
2023/01/31 02:59:18;;;;;;;14.03;12.77;;;;;;;3.54;100.00;98653.00;4998524;28;20046;-61
2023/01/31 03:01:47;;;;;;;20.25;18.80;;;;;;;3.42;100.00;98631.75;4983470;28;20280;-61
2023/01/31 03:04:14;;;;;;;17.88;16.40;;;;;;;3.56;100.00;98696.97;5028373;28;20106;-61
2023/01/31 03:06:40;;;;;;;19.10;17.45;;;;;;;3.61;100.00;98657.25;5037197;28;20091;-61
2023/01/31 03:09:20;;;;;;;14.30;13.03;;;;;;;3.54;100.00;98668.19;5033632;28;20756;-61
2023/01/31 03:12:06;;;;;;;14.75;13.48;;;;;;;3.58;100.00;98664.84;5039399;28;20139;-61
2023/01/31 03:14:41;;;;;;;17.45;16.00;;;;;;;3.48;100.00;98673.19;5045506;28;20068;-61
2023/01/31 03:17:31;;;;;;;18.52;14.88;;;;;;;3.51;100.00;98669.84;5028307;28;20045;-61
2023/01/31 03:20:28;;;;;;;15.73;14.37;;;;;;;3.51;100.00;98659.72;5030495;28;20144;-61
2023/01/31 03:22:58;;;;;;;18.33;16.60;;;;;;;3.67;100.00;98692.81;5039673;28;20740;-62
2023/01/31 03:25:29;;;;;;;18.35;16.73;;;;;;;3.66;100.00;98665.78;5039316;28;20343;-61
2023/01/31 03:28:08;;;;;;;23.52;21.63;;;;;;;3.58;100.00;98685.13;5024458;28;20053;-61
2023/01/31 03:30:35;;;;;;;18.00;16.67;;;;;;;3.69;100.00;98672.56;5029071;28;20044;-59
2023/01/31 03:33:24;;;;;;;17.63;16.02;;;;;;;3.50;100.00;98686.75;5033797;28;20048;-59
2023/01/31 03:36:08;;;;;;;17.88;16.65;;;;;;;3.62;100.00;98676.72;5040384;28;20041;-61
2023/01/31 03:38:41;;;;;;;38.47;36.30;;;;;;;3.61;100.00;98692.75;5030098;28;20559;-60
2023/01/31 03:41:15;;;;;;;31.50;29.05;;;;;;;3.61;100.00;98707.09;5038990;28;20480;-61
2023/01/31 03:44:00;;;;;;;20.38;18.63;;;;;;;3.64;100.00;98690.28;5037184;28;20037;-60
2023/01/31 03:46:39;;;;;;;21.77;19.48;;;;;;;3.70;100.00;98719.88;5027036;28;20045;-61
2023/01/31 03:49:09;;;;;;;76.20;71.32;;;;;;;3.69;100.00;98693.66;5036324;28;20522;-62
2023/01/31 03:51:41;;;;;;;35.05;32.33;;;;;;;3.57;100.00;98668.22;5028342;28;20418;-62
2023/01/31 03:54:14;;;;;;;14.17;13.20;;;;;;;3.69;100.00;98710.59;5028923;28;20132;-62
2023/01/31 03:57:03;;;;;;;16.55;15.30;;;;;;;3.64;100.00;98697.03;5044264;28;20300;-62
2023/01/31 03:59:35;;;;;;;18.55;17.13;;;;;;;3.65;100.00;98704.63;5000787;28;20111;-62
2023/01/31 04:02:05;;;;;;;16.88;15.75;;;;;;;3.79;100.00;98693.75;5027888;28;20034;-62
2023/01/31 04:04:51;;;;;;;17.08;15.80;;;;;;;3.70;100.00;98724.94;5030787;28;20041;-62
2023/01/31 04:07:17;;;;;;;16.65;15.38;;;;;;;3.63;100.00;98688.56;5030013;28;20138;-60
2023/01/31 04:09:43;;;;;;;18.40;17.03;;;;;;;3.42;100.00;98662.16;5028427;28;20045;-61
2023/01/31 04:12:14;;;;;;;19.08;17.60;;;;;;;3.49;100.00;98685.03;5027337;28;20467;-60
2023/01/31 04:14:41;;;;;;;16.65;15.50;;;;;;;3.59;100.00;98679.22;5029438;28;20053;-61
2023/01/31 04:17:07;;;;;;;15.50;14.30;;;;;;;3.57;100.00;98678.34;5029861;28;20472;-60
2023/01/31 04:19:32;;;;;;;15.43;14.13;;;;;;;3.64;100.00;98676.75;5029757;28;20814;-62
2023/01/31 04:21:58;;;;;;;17.03;15.47;;;;;;;3.68;100.00;98660.72;5029438;28;20037;-60
2023/01/31 04:24:24;;;;;;;28.17;26.50;;;;;;;3.54;100.00;98653.00;5030352;28;20047;-61
2023/01/31 04:26:50;;;;;;;82.60;38.05;;;;;;;3.36;100.00;98662.09;5028159;28;20048;-61
2023/01/31 04:29:16;;;;;;;383.05;139.20;;;;;;;3.47;100.00;98680.81;5029752;28;20301;-61
2023/01/31 04:31:42;;;;;;;371.05;130.70;;;;;;;3.38;100.00;98691.69;5030127;28;20033;-62
2023/01/31 04:34:08;;;;;;;382.00;129.77;;;;;;;3.43;100.00;98690.06;5027074;28;20045;-61
2023/01/31 04:36:34;;;;;;;383.90;128.40;;;;;;;3.43;100.00;98700.19;5029597;28;20064;-62
2023/01/31 04:38:59;;;;;;;338.07;142.30;;;;;;;3.28;100.00;98700.03;5030357;28;20543;-61
2023/01/31 04:41:25;;;;;;;394.77;136.63;;;;;;;3.42;100.00;98700.16;5029531;28;20049;-62
2023/01/31 04:43:51;;;;;;;390.13;128.97;;;;;;;3.45;100.00;98710.34;5030239;28;20041;-61
2023/01/31 04:46:18;;;;;;;407.47;135.93;;;;;;;3.42;100.00;98721.28;5031716;28;20318;-60
2023/01/31 04:48:43;;;;;;;404.77;134.10;;;;;;;3.41;100.00;98695.94;5029189;28;20350;-60
2023/01/31 04:51:09;;;;;;;406.43;138.80;;;;;;;3.45;100.00;98710.34;5029435;28;20279;-60
2023/01/31 04:53:35;;;;;;;426.50;147.87;;;;;;;3.28;100.00;98683.97;5027338;28;20056;-60
2023/01/31 04:56:02;;;;;;;418.27;137.87;;;;;;;3.47;100.00;98704.47;5028008;28;20045;-60
2023/01/31 04:58:28;;;;;;;412.13;143.53;;;;;;;3.42;100.00;98710.31;5028234;28;20057;-57
2023/01/31 05:00:54;;;;;;;422.73;145.87;;;;;;;3.51;100.00;98687.59;5028432;28;20284;-60
2023/01/31 05:03:20;;;;;;;426.37;149.43;;;;;;;3.51;100.00;98697.75;5026396;28;20323;-59
2023/01/31 05:05:50;;;;;;;437.27;146.83;;;;;;;3.40;100.00;98714.50;5027339;28;20356;-59
2023/01/31 05:08:16;;;;;;;429.13;146.10;;;;;;;3.40;100.00;98709.44;5028618;28;20294;-59
2023/01/31 05:10:42;;;;;;;424.13;146.63;;;;;;;3.49;100.00;98707.84;5031097;28;20300;-59
2023/01/31 05:13:09;;;;;;;417.83;146.30;;;;;;;3.37;100.00;98681.53;5026284;28;20443;-60
2023/01/31 05:15:35;;;;;;;425.43;150.53;;;;;;;3.45;100.00;98716.25;5029055;28;20371;-59
2023/01/31 05:18:03;;;;;;;427.50;148.67;;;;;;;3.32;100.00;98719.50;5029419;28;20303;-60
2023/01/31 05:20:32;;;;;;;431.23;162.20;;;;;;;3.51;100.00;98731.53;5029946;28;20151;-60
2023/01/31 05:22:58;;;;;;;419.27;152.40;;;;;;;3.56;100.00;98747.66;5027878;28;21124;-60
2023/01/31 05:25:24;;;;;;;408.70;139.27;;;;;;;3.66;100.00;98735.91;5029694;28;20367;-60
2023/01/31 05:27:52;;;;;;;412.67;141.53;;;;;;;3.61;100.00;98747.66;5028215;28;20037;-61
2023/01/31 05:30:18;;;;;;;414.07;146.47;;;;;;;3.31;100.00;98689.09;5025934;28;20422;-58
2023/01/31 05:32:46;;;;;;;420.30;149.90;;;;;;;3.54;100.00;98738.31;5028452;28;20288;-59
2023/01/31 05:35:12;;;;;;;424.33;151.13;;;;;;;3.44;100.00;98719.63;5028982;28;20276;-59
2023/01/31 05:37:41;;;;;;;421.70;166.97;;;;;;;3.59;100.00;98741.75;5028090;28;20299;-59
2023/01/31 05:40:12;;;;;;;422.30;170.97;;;;;;;3.60;100.00;98746.00;5029964;28;20091;-59
2023/01/31 05:42:37;;;;;;;424.17;180.73;;;;;;;3.48;100.00;98713.75;5031297;28;20284;-62
2023/01/31 05:45:04;;;;;;;416.20;142.53;;;;;;;3.54;100.00;98734.09;5034127;28;20275;-59
2023/01/31 05:47:30;;;;;;;417.63;148.57;;;;;;;3.48;100.00;98761.06;5031007;28;20045;-60
2023/01/31 05:49:55;;;;;;;409.83;137.63;;;;;;;3.57;100.00;98735.78;5032406;28;20283;-59
2023/01/31 05:52:21;;;;;;;410.07;139.73;;;;;;;3.36;100.00;98718.69;5033974;28;20045;-60
2023/01/31 05:54:47;;;;;;;413.13;142.20;;;;;;;3.35;100.00;98728.81;5034873;28;20397;-59
2023/01/31 05:57:14;;;;;;;416.37;144.97;;;;;;;3.48;100.00;98761.06;5031655;28;20064;-60
2023/01/31 05:59:40;;;;;;;412.27;140.77;;;;;;;3.38;100.00;98749.97;5030629;28;20541;-60
2023/01/31 06:02:07;;;;;;;414.63;144.50;;;;;;;3.29;100.00;98747.31;5031276;28;20862;-60
2023/01/31 06:04:33;;;;;;;416.10;140.77;;;;;;;3.40;100.00;98772.78;5030404;28;20048;-59
2023/01/31 06:06:59;;;;;;;221.70;111.65;;;;;;;3.43;100.00;98761.00;5032295;28;20896;-59
2023/01/31 06:09:25;;;;;;;20.03;18.63;;;;;;;3.32;100.00;98767.63;5031758;28;20036;-61
2023/01/31 06:11:51;;;;;;;18.23;16.92;;;;;;;3.47;100.00;98794.84;5032105;28;20454;-60
2023/01/31 06:14:16;;;;;;;21.53;19.83;;;;;;;3.20;100.00;98748.06;5033395;28;20045;-61
2023/01/31 06:16:42;;;;;;;21.43;19.83;;;;;;;3.27;100.00;98774.31;5031994;28;20495;-58
2023/01/31 06:19:08;;;;;;;20.03;18.37;;;;;;;3.35;100.00;98805.69;5031328;28;20034;-58
2023/01/31 06:21:34;;;;;;;20.83;17.87;;;;;;;3.41;100.00;98807.44;5031691;28;20049;-58
2023/01/31 06:23:59;;;;;;;15.33;14.17;;;;;;;3.42;100.00;98799.84;5041063;28;20036;-59
2023/01/31 06:26:25;;;;;;;11.40;10.50;;;;;;;3.38;100.00;98820.91;5032228;28;20067;-59
2023/01/31 06:28:50;;;;;;;15.27;13.87;;;;;;;3.40;100.00;98848.78;5035017;28;20566;-60
2023/01/31 06:31:17;;;;;;;14.93;13.73;;;;;;;3.32;100.00;98842.78;5032919;28;20044;-56
2023/01/31 06:33:43;;;;;;;14.55;13.35;;;;;;;3.18;100.00;98828.25;5032010;28;20044;-61
2023/01/31 06:36:09;;;;;;;13.40;12.40;;;;;;;3.25;100.00;98848.59;5032337;28;20033;-55
2023/01/31 06:38:34;;;;;;;15.33;14.17;;;;;;;3.31;100.00;98859.66;5030425;28;20102;-55
2023/01/31 06:41:00;;;;;;;16.13;14.87;;;;;;;3.25;100.00;98824.13;5027877;28;20037;-56
2023/01/31 06:43:26;;;;;;;13.07;11.80;;;;;;;3.07;100.00;98827.25;5030227;28;20048;-56
2023/01/31 06:45:51;;;;;;;11.70;10.93;;;;;;;3.22;100.00;98851.97;5031121;28;20045;-58
2023/01/31 06:48:19;;;;;;;17.10;15.53;;;;;;;3.18;100.00;98880.63;5032886;28;20041;-56
2023/01/31 06:50:45;;;;;;;18.38;16.85;;;;;;;3.12;100.00;98860.25;5028991;28;20123;-58
2023/01/31 06:53:11;;;;;;;15.10;13.77;;;;;;;3.26;100.00;98888.31;5028426;28;20552;-55
2023/01/31 06:55:37;;;;;;;16.53;15.10;;;;;;;3.27;100.00;98884.97;5031630;28;20041;-57
2023/01/31 06:58:03;;;;;;;21.33;19.38;;;;;;;3.15;100.00;98875.47;5027879;28;20396;-55
2023/01/31 07:00:29;;;;;;;19.93;18.23;;;;;;;3.12;100.00;98871.25;5024354;28;20053;-55
2023/01/31 07:02:55;;;;;;;18.30;16.73;;;;;;;3.27;100.00;98898.44;5025946;28;20046;-56
2023/01/31 07:05:22;;;;;;;20.80;19.42;;;;;;;3.32;100.00;98909.50;5016562;28;20630;-57
2023/01/31 07:07:48;;;;;;;23.08;21.48;;;;;;;3.42;100.00;98888.53;5030803;28;20075;-56
2023/01/31 07:10:15;;;;;;;22.55;20.95;;;;;;;3.43;100.00;98885.19;5032036;28;20076;-57
2023/01/31 07:12:41;;;;;;;19.65;18.15;;;;;;;3.44;100.00;98879.25;5029529;28;20045;-58
2023/01/31 07:15:09;;;;;;;22.33;20.67;;;;;;;3.55;100.00;98899.69;5030193;28;20511;-56
2023/01/31 07:17:35;;;;;;;24.60;23.00;;;;;;;3.59;100.00;98909.03;5028128;28;20537;-58
2023/01/31 07:20:00;;;;;;;23.13;19.43;;;;;;;3.57;100.00;98908.16;5031514;28;20059;-56
2023/01/31 07:22:56;;;;;;;19.65;18.40;;;;;;;3.59;100.00;98899.75;5031175;28;20090;-57
2023/01/31 07:25:22;;;;;;;23.58;21.95;;;;;;;3.61;100.00;98900.59;5028399;28;20063;-60
2023/01/31 07:27:50;;;;;;;;;;;;;;;3.68;100.00;98906.63;5035688;28;20053;-56
2023/01/31 07:30:16;;;;;;;;;;;;;;;3.68;100.00;98924.38;5030935;28;19963;-56
2023/01/31 07:32:41;;;;;;;;;;;;;;;3.74;100.00;98919.34;5027976;28;20311;-56
2023/01/31 07:35:07;;;;;;;;;;;;;;;3.75;100.00;98937.97;5029047;28;19921;-56
2023/01/31 07:37:34;;;;;;;;;;;;;;;3.70;100.00;98915.09;5031441;28;19961;-56
2023/01/31 07:39:59;;;;;;;;;;;;;;;3.74;100.00;98918.50;5029338;28;20001;-57
2023/01/31 07:42:25;;;;;;;;;;;;;;;3.80;100.00;98916.91;5049199;28;19959;-57
2023/01/31 07:44:50;;;;;;;;;;;;;;;3.88;100.00;98934.75;5027515;28;20046;-55
2023/01/31 07:47:16;;;;;;;;;;;;;;;3.90;100.00;98958.47;5022253;28;20447;-55
2023/01/31 07:49:41;;;;;;;;;;;;;;;3.90;100.00;98944.09;5031584;28;20384;-56
2023/01/31 07:52:07;;;;;;;;;;;;;;;3.94;100.00;98948.38;5027806;28;19995;-58
2023/01/31 07:54:32;;;;;;;;;;;;;;;3.96;100.00;98950.91;5037739;28;20441;-56
2023/01/31 07:56:58;;;;;;;;;;;;;;;3.97;100.00;98989.00;5029326;28;19974;-56
2023/01/31 07:59:24;;;;;;;;;;;;;;;3.98;100.00;98980.56;5030444;28;20032;-58
2023/01/31 08:04:33;;;;;;;;;;;;;;;4.09;100.00;99028.88;5031085;28;19936;-57
2023/01/31 08:07:01;;;;;;;;;;;;;;;4.15;100.00;98993.44;5029105;28;20397;-58
2023/01/31 08:09:27;;;;;;;;;;;;;;;4.19;100.00;98987.56;5030286;28;19967;-56
2023/01/31 08:11:53;;;;;;;;;;;;;;;4.29;100.00;99001.19;5029916;28;19946;-56
2023/01/31 08:14:24;;;;;;;75.43;33.90;;;;;;;4.31;100.00;99030.84;5025666;28;21067;-57
2023/01/31 08:16:50;;;;;;;;;;;;;;;4.18;100.00;99005.31;5028514;28;20519;-57
2023/01/31 08:19:15;;;;;;;;;;;;;;;4.09;100.00;99006.91;5029337;28;19984;-55
2023/01/31 08:21:41;;;;;;;;;;;;;;;3.96;100.00;99034.63;5029831;28;19947;-56
2023/01/31 08:24:06;;;;;;;;;;;;;;;3.78;100.00;99025.06;5031304;28;19950;-53
2023/01/31 08:26:32;;;;;;;;;;;;;;;3.64;100.00;99032.50;5027048;28;19982;-56
2023/01/31 08:29:01;;;;;;;;;;;;;;;3.52;100.00;99019.59;5028504;28;19956;-58
2023/01/31 08:31:27;;;;;;;;;;;;;;;3.44;100.00;99033.84;5057777;28;20325;-56
2023/01/31 08:33:53;;;;;;;;;;;;;;;3.31;100.00;99039.53;5028044;28;19947;-56
2023/01/31 08:36:21;;;;;;;;;;;;;;;3.16;100.00;99047.75;5024320;28;19998;-56
2023/01/31 08:38:46;;;;;;;;;;;;;;;3.12;100.00;99037.56;5032142;28;19955;-58
2023/01/31 08:41:12;;;;;;;;;;;;;;;3.17;100.00;99064.69;5028485;28;20383;-54
2023/01/31 08:43:38;;;;;;;;;;;;;;;3.30;100.00;99042.06;5028689;28;19994;-54
2023/01/31 08:46:04;;;;;;;;;;;;;;;3.32;100.00;99040.41;5030720;28;20049;-57
2023/01/31 08:48:33;;;;;;;;;;;;;;;3.48;100.00;99073.63;5031031;28;19984;-56
2023/01/31 08:50:59;;;;;;;;;;;;;;;3.52;100.00;99044.13;5028584;28;19947;-54
2023/01/31 08:53:25;;;;;;;;;;;;;;;3.50;100.00;99030.56;5034919;28;19978;-57
2023/01/31 08:55:53;;;;;;;;;;;;;;;3.56;100.00;99013.78;5028178;28;20011;-58
2023/01/31 08:58:18;;;;;;;;;;;;;;;3.60;100.00;99032.41;5029235;28;19924;-58
2023/01/31 09:00:44;;;;;;;365.13;129.75;;;;;;;3.62;100.00;99040.88;5028169;28;20253;-53
2023/01/31 09:03:15;;;;;;;431.37;150.80;;;;;;;3.69;100.00;99008.03;5029140;28;20404;-54
2023/01/31 09:05:41;;;;;;;449.57;154.27;;;;;;;3.77;100.00;99043.66;5030282;28;20033;-53
2023/01/31 09:08:07;;;;;;;435.90;152.77;;;;;;;3.83;100.00;99022.59;5026421;28;20449;-57
2023/01/31 09:10:32;;;;;;;443.93;159.70;;;;;;;3.87;100.00;99030.25;5029476;28;20495;-55
2023/01/31 09:12:59;;;;;;;445.63;165.53;;;;;;;3.90;100.00;99032.00;5027515;28;20468;-56
2023/01/31 09:15:25;;;;;;;443.00;159.47;;;;;;;3.75;100.00;99012.34;5023316;28;20045;-54
2023/01/31 09:17:51;;;;;;;443.50;164.17;;;;;;;3.64;100.00;99024.03;5030042;28;20865;-54
2023/01/31 09:20:17;;;;;;;447.10;166.70;;;;;;;3.69;100.00;99045.25;5033168;28;20323;-56
2023/01/31 09:22:43;;;;;;;452.00;171.63;;;;;;;3.59;100.00;99040.84;5030266;28;20405;-59
2023/01/31 09:25:09;;;;;;;453.07;172.27;;;;;;;3.65;100.00;99051.91;5028440;28;20040;-56
2023/01/31 09:27:37;;;;;;;449.37;176.07;;;;;;;3.57;100.00;99039.97;5030035;28;20696;-55
2023/01/31 09:30:07;;;;;;;448.73;181.10;;;;;;;3.53;100.00;99033.13;5030683;28;20473;-55
2023/01/31 09:32:33;;;;;;;447.13;170.17;;;;;;;3.76;100.00;99082.53;5016328;28;20805;-57
2023/01/31 09:34:59;;;;;;;447.27;170.43;;;;;;;3.71;100.00;99085.81;5033081;28;20295;-55
2023/01/31 09:37:28;;;;;;;446.53;168.87;;;;;;;3.50;100.00;99077.03;5031333;28;20325;-55
2023/01/31 09:39:54;;;;;;;441.60;165.60;;;;;;;3.50;100.00;99088.84;5031609;28;20053;-55
2023/01/31 09:42:27;;;;;;;445.53;157.60;;;;;;;3.35;100.00;99070.88;5031011;28;20273;-55
2023/01/31 09:45:11;;;;;;;446.07;166.40;;;;;;;3.13;100.00;99037.59;5032884;28;20761;-55
2023/01/31 09:47:49;;;;;;;437.73;153.17;;;;;;;3.15;100.00;99047.72;5030850;28;20314;-55
2023/01/31 09:50:35;;;;;;;438.53;153.33;;;;;;;3.36;100.00;99077.63;5032045;28;20287;-55
2023/01/31 09:53:01;;;;;;;;;;;;;;;3.50;100.00;99054.22;5033139;28;20275;-54
2023/01/31 09:55:54;;;;;;;440.00;152.37;;;;;;;3.43;100.00;99064.25;5032265;28;19923;-57
2023/01/31 09:58:50;;;;;;;441.47;159.33;;;;;;;3.47;100.00;99061.78;4997921;28;20308;-55
2023/01/31 10:01:48;;;;;;;437.87;157.10;;;;;;;3.69;100.00;99046.06;4999496;28;20313;-55
2023/01/31 10:04:50;;;;;;;440.77;161.40;;;;;;;3.91;100.00;99029.47;5002805;28;20273;-54
2023/01/31 10:07:29;;;;;;;442.63;168.23;;;;;;;3.94;100.00;99029.53;5002872;28;20330;-54
2023/01/31 10:10:17;;;;;;;441.93;164.73;;;;;;;4.17;100.00;99042.50;5002548;28;20383;-56
2023/01/31 10:12:48;;;;;;;445.53;170.70;;;;;;;4.06;100.00;99032.25;4999738;28;20285;-55
2023/01/31 10:15:20;;;;;;;445.83;179.23;;;;;;;4.14;100.00;99010.34;4999784;28;20671;-55
2023/01/31 10:17:49;;;;;;;443.10;173.33;;;;;;;4.10;100.00;99025.50;4996636;28;20293;-56
2023/01/31 10:20:33;;;;;;;442.13;173.37;;;;;;;4.26;100.00;99019.78;4998041;28;20636;-57
2023/01/31 10:23:37;;;;;;;443.37;174.50;;;;;;;4.13;100.00;99011.19;4999004;28;20276;-58
2023/01/31 10:26:07;;;;;;;434.50;166.23;;;;;;;3.99;100.00;98987.31;4999251;28;20284;-56
2023/01/31 10:28:46;;;;;;;443.90;189.77;;;;;;;4.05;100.00;98991.63;5000620;28;20328;-56
2023/01/31 10:31:11;;;;;;;332.30;151.27;;;;;;;4.21;100.00;99028.16;4999632;28;20363;-58
2023/01/31 10:33:57;;;;;;;443.67;192.67;;;;;;;4.34;100.00;99032.56;4995890;28;20296;-57
2023/01/31 10:36:27;;;;;;;13.97;9.63;;;;;;;4.34;100.00;99017.34;5000339;28;20489;-55
2023/01/31 10:39:17;;;;;;;15.47;10.30;;;;;;;4.32;100.00;99039.31;4998497;28;20050;-57
2023/01/31 10:41:59;;;;;;;15.07;10.60;;;;;;;4.20;100.00;99001.13;5002708;28;20507;-56
2023/01/31 10:44:55;;;;;;;16.20;9.40;;;;;;;4.37;100.00;99018.22;4985948;28;20367;-53
2023/01/31 10:47:23;;;;;;;;;;;;;;;4.27;100.00;99056.19;4963598;28;20360;-54
2023/01/31 10:49:50;;;;;;;10.97;9.07;;;;;;;4.31;100.00;99025.78;4966091;28;20048;-55
2023/01/31 10:52:27;;;;;;;12.83;8.63;;;;;;;4.27;100.00;99029.13;4964057;28;20305;-56
2023/01/31 10:55:21;;;;;;;11.17;8.53;;;;;;;4.27;100.00;99024.03;4947876;28;20567;-55
2023/01/31 10:57:48;;;;;;;15.40;10.93;;;;;;;4.38;100.00;99027.56;4971492;28;20359;-56
2023/01/31 11:00:32;;;;;;;14.10;9.77;;;;;;;4.53;100.00;99037.91;4978080;28;20880;-65
2023/01/31 11:02:58;;;;;;;14.37;8.93;;;;;;;4.63;100.00;99017.66;4976777;28;20348;-60
2023/01/31 11:05:27;;;;;;;16.50;9.83;;;;;;;4.67;100.00;99073.56;4979791;28;20677;-57
2023/01/31 11:07:56;;;;;;;13.43;12.07;;;;;;;4.69;100.00;99027.91;4976387;28;20289;-56
2023/01/31 11:10:26;;;;;;;11.57;9.23;;;;;;;4.63;100.00;99033.75;4976317;28;20281;-56
2023/01/31 11:12:54;;;;;;;12.43;9.83;;;;;;;4.50;100.00;99027.69;4978235;28;20770;-58
2023/01/31 11:15:24;;;;;;;12.53;9.67;;;;;;;4.49;100.00;99040.38;4979831;28;20336;-57
2023/01/31 11:17:50;;;;;;;11.03;9.17;;;;;;;4.41;100.00;99032.66;4978122;28;20512;-59
2023/01/31 11:20:27;;;;;;;12.13;10.83;;;;;;;4.34;100.00;99037.66;4978379;28;20397;-56
2023/01/31 11:22:55;;;;;;;14.87;9.53;;;;;;;4.33;100.00;99069.78;4978768;28;20321;-58
2023/01/31 11:25:23;;;;;;;14.10;12.23;;;;;;;3.82;100.00;99003.97;5007174;28;20292;-57
2023/01/31 11:27:53;;;;;;;12.47;10.53;;;;;;;4.07;100.00;99023.78;5008045;28;20806;-56
2023/01/31 11:30:19;;;;;;;16.13;11.13;;;;;;;4.04;100.00;99027.97;5009548;28;20431;-57
2023/01/31 11:32:44;;;;;;;14.03;9.97;;;;;;;4.04;100.00;99033.03;5012467;28;20288;-58
2023/01/31 11:35:13;;;;;;;13.83;11.07;;;;;;;4.03;100.00;99023.75;5010533;28;20108;-56